createdAt,value
2017-10-10T00:30:48.228Z,1.2
2017-10-10T00:33:45.334Z,1.2
2017-10-10T00:35:43.562Z,1.2
2017-10-10T00:36:42.900Z,1.2
2017-10-10T00:38:41.122Z,1.2
2017-10-10T00:39:39.821Z,1.2
2017-10-10T00:41:38.421Z,1.2
2017-10-10T00:45:34.643Z,1.2
2017-10-10T00:47:33.501Z,1.2
2017-10-10T00:48:32.219Z,1.2
2017-10-10T00:49:31.286Z,1.2
2017-10-10T00:50:02.233Z,1.2
2017-10-10T00:53:28.158Z,1.2
2017-10-10T00:55:26.874Z,1.2
2017-10-10T00:57:24.593Z,1.2
2017-10-10T00:58:23.662Z,1.2
2017-10-10T00:59:22.874Z,1.2
2017-10-10T01:00:22.203Z,1.2
2017-10-10T01:03:20.087Z,1.2
2017-10-10T01:04:19.184Z,1.2
2017-10-10T01:05:18.150Z,1.2
2017-10-10T01:07:16.122Z,1.2
2017-10-10T01:08:15.857Z,1.2
2017-10-10T01:10:13.830Z,1.3
2017-10-10T01:11:13.299Z,1.3
2017-10-10T01:12:11.999Z,1.3
2017-10-10T01:14:10.996Z,1.3
2017-10-10T01:15:09.698Z,1.3
2017-10-10T01:20:05.204Z,1.3
2017-10-10T01:22:04.056Z,1.3
2017-10-10T01:24:01.904Z,1.3
2017-10-10T01:25:01.248Z,1.3
2017-10-10T01:30:56.007Z,1.3
2017-10-10T01:31:26.537Z,1.3
2017-10-10T01:32:54.195Z,1.3
2017-10-10T01:35:51.931Z,1.3
2017-10-10T01:36:50.905Z,1.3
2017-10-10T01:38:49.125Z,1.3
2017-10-10T01:44:43.852Z,1.3
2017-10-10T01:46:42.977Z,1.3
2017-10-10T01:47:41.575Z,1.4
2017-10-10T01:48:40.790Z,1.3
2017-10-10T01:49:40.019Z,1.3
2017-10-10T01:50:38.859Z,1.3
2017-10-10T01:51:09.512Z,1.3
2017-10-10T01:54:35.934Z,1.3
2017-10-10T01:55:34.929Z,1.3
2017-10-10T01:56:33.503Z,1.4
2017-10-10T02:00:30.622Z,1.3
2017-10-10T02:01:29.458Z,1.3
2017-10-10T02:02:28.949Z,1.3
2017-10-10T02:03:27.909Z,1.3
2017-10-10T02:06:25.520Z,1.3
2017-10-10T02:07:24.760Z,1.3
2017-10-10T02:09:23.257Z,1.4
2017-10-10T02:10:21.968Z,1.3
2017-10-10T02:11:21.715Z,1.3
2017-10-10T02:14:18.558Z,1.4
2017-10-10T02:16:17.035Z,1.3
2017-10-10T02:17:16.379Z,1.3
2017-10-10T02:18:14.974Z,1.4
2017-10-10T02:21:12.459Z,1.4
2017-10-10T02:22:11.804Z,1.4
2017-10-10T02:23:11.150Z,1.4
2017-10-10T02:24:09.863Z,1.4
2017-10-10T02:26:08.733Z,1.4
2017-10-10T02:27:07.719Z,1.4
2017-10-10T02:29:06.088Z,1.4
2017-10-10T02:32:03.588Z,1.4
2017-10-10T02:33:02.164Z,1.4
2017-10-10T02:35:00.772Z,1.4
2017-10-10T02:36:00.255Z,1.4
2017-10-10T02:37:58.357Z,1.4
2017-10-10T02:39:56.718Z,1.4
2017-10-10T02:40:55.844Z,1.4
2017-10-10T02:43:53.466Z,1.4
2017-10-10T02:45:51.567Z,1.4
2017-10-10T02:50:47.184Z,1.4
2017-10-10T02:52:45.681Z,1.4
2017-10-10T02:54:43.918Z,1.4
2017-10-10T02:55:43.274Z,1.4
2017-10-10T02:56:42.004Z,1.4
2017-10-10T03:00:39.157Z,1.4
2017-10-10T03:01:38.029Z,1.4
2017-10-10T03:02:37.515Z,1.4
2017-10-10T03:03:36.364Z,1.4
2017-10-10T03:04:35.468Z,1.4
2017-10-10T03:05:34.957Z,1.4
2017-10-10T03:06:33.668Z,1.4
2017-10-10T03:12:28.765Z,1.5
2017-10-10T03:13:28.124Z,1.5
2017-10-10T03:15:26.360Z,1.5
2017-10-10T03:19:22.876Z,1.5
2017-10-10T03:28:15.026Z,1.5
2017-10-10T03:35:09.189Z,1.5
2017-10-10T03:41:04.332Z,1.4
2017-10-10T03:47:58.359Z,1.5
2017-10-10T03:49:56.743Z,1.5
2017-10-10T03:50:55.464Z,1.5
2017-10-10T03:53:53.077Z,1.5
2017-10-10T04:01:46.482Z,1.5
2017-10-10T04:07:41.116Z,1.5
2017-10-10T04:30:21.924Z,1.5
2017-10-10T04:31:21.281Z,1.5
2017-10-10T04:32:19.991Z,1.5
2017-10-10T04:40:13.264Z,1.5
2017-10-10T04:43:11.013Z,1.5
2017-10-10T04:50:05.164Z,1.5
2017-10-10T04:51:03.755Z,1.5
2017-10-10T04:52:03.749Z,1.5
2017-10-10T04:53:02.596Z,1.5
2017-10-10T04:55:00.698Z,1.5
2017-10-10T04:56:59.062Z,1.5
2017-10-10T04:57:58.144Z,1.5
2017-10-10T05:02:53.894Z,1.5
2017-10-10T05:03:53.499Z,1.5
2017-10-10T05:04:52.081Z,1.5
2017-10-10T05:05:51.293Z,1.5
2017-10-10T05:06:50.385Z,1.5
2017-10-10T05:07:49.864Z,1.5
2017-10-10T05:08:49.080Z,1.5
2017-10-10T05:09:47.664Z,1.5
2017-10-10T05:10:47.163Z,1.5
2017-10-10T05:11:46.509Z,1.5
2017-10-10T05:12:45.627Z,1.5
2017-10-10T05:13:44.469Z,1.5
2017-10-10T05:14:43.417Z,1.5
2017-10-10T05:15:43.263Z,1.5
2017-10-10T05:16:41.843Z,1.5
2017-10-10T05:17:41.823Z,1.5
2017-10-10T05:18:40.671Z,1.5
2017-10-10T05:19:39.522Z,1.5
2017-10-10T05:20:38.737Z,1.5
2017-10-10T05:21:37.969Z,1.5
2017-10-10T05:22:37.441Z,1.5
2017-10-10T05:23:36.157Z,1.5
2017-10-10T05:24:35.807Z,1.5
2017-10-10T05:25:34.393Z,1.5
2017-10-10T05:26:33.765Z,1.5
2017-10-10T05:27:33.109Z,1.5
2017-10-10T05:28:31.691Z,1.5
2017-10-10T05:31:29.689Z,1.5
2017-10-10T05:32:28.939Z,1.5
2017-10-10T05:33:27.923Z,1.5
2017-10-10T05:34:27.169Z,1.5
2017-10-10T05:35:25.881Z,1.6
2017-10-10T05:36:24.853Z,1.5
2017-10-10T05:37:24.077Z,1.5
2017-10-10T05:38:23.667Z,1.5
2017-10-10T05:39:23.035Z,1.6
2017-10-10T05:40:22.004Z,1.6
2017-10-10T05:41:21.353Z,1.6
2017-10-10T05:42:20.062Z,1.6
2017-10-10T05:44:18.295Z,1.6
2017-10-10T05:46:16.751Z,1.5
2017-10-10T05:48:15.624Z,1.6
2017-10-10T05:49:14.631Z,1.6
2017-10-10T05:50:13.619Z,1.6
2017-10-10T05:51:12.735Z,1.6
2017-10-10T05:52:11.451Z,1.6
2017-10-10T05:55:09.199Z,1.6
2017-10-10T05:56:08.804Z,1.6
2017-10-10T05:57:07.379Z,1.6
2017-10-10T05:58:06.744Z,1.6
2017-10-10T05:59:05.958Z,1.6
2017-10-10T06:00:04.805Z,1.7
2017-10-10T06:01:03.894Z,1.7
2017-10-10T06:04:01.247Z,1.7
2017-10-10T06:05:00.612Z,1.7
2017-10-10T06:06:00.110Z,1.7
2017-10-10T06:06:58.954Z,1.7
2017-10-10T06:08:57.691Z,1.7
2017-10-10T06:09:56.410Z,1.7
2017-10-10T06:10:55.900Z,1.7
2017-10-10T06:11:55.374Z,1.8
2017-10-10T06:12:54.360Z,1.8
2017-10-10T06:13:52.937Z,1.8
2017-10-10T06:14:52.020Z,1.8
2017-10-10T06:15:51.229Z,1.8
2017-10-10T06:16:50.573Z,1.8
2017-10-10T06:17:49.929Z,1.8
2017-10-10T06:18:49.033Z,1.8
2017-10-10T06:19:48.659Z,1.8
2017-10-10T06:20:47.112Z,1.8
2017-10-10T06:21:46.598Z,1.8
2017-10-10T06:22:46.630Z,1.8
2017-10-10T06:23:45.111Z,1.8
2017-10-10T06:25:43.374Z,1.8
2017-10-10T06:26:41.973Z,1.8
2017-10-10T06:27:41.059Z,1.8
2017-10-10T06:28:40.655Z,1.8
2017-10-10T06:29:39.871Z,1.8
2017-10-10T06:31:37.971Z,1.8
2017-10-10T06:33:36.332Z,1.8
2017-10-10T06:34:35.544Z,1.8
2017-10-10T06:36:33.508Z,1.8
2017-10-10T06:37:33.104Z,1.8
2017-10-10T06:38:31.947Z,1.8
2017-10-10T06:39:31.295Z,1.8
2017-10-10T06:40:30.775Z,1.8
2017-10-10T06:41:29.492Z,1.8
2017-10-10T06:42:28.971Z,1.9
2017-10-10T06:43:28.587Z,1.9
2017-10-10T06:44:26.935Z,1.9
2017-10-10T06:45:26.549Z,1.9
2017-10-10T06:46:25.256Z,1.9
2017-10-10T06:47:24.608Z,1.9
2017-10-10T06:48:23.958Z,1.9
2017-10-10T06:49:22.801Z,1.9
2017-10-10T06:50:22.148Z,1.9
2017-10-10T06:53:19.761Z,1.9
2017-10-10T06:54:18.742Z,1.9
2017-10-10T06:55:18.089Z,1.9
2017-10-10T06:56:16.934Z,1.9
2017-10-10T06:57:16.149Z,1.9
2017-10-10T06:58:15.239Z,1.9
2017-10-10T06:59:14.328Z,2
2017-10-10T07:00:13.413Z,1.9
2017-10-10T07:02:12.142Z,2
2017-10-10T07:04:10.377Z,2
2017-10-10T07:05:09.097Z,2
2017-10-10T07:06:08.950Z,2
2017-10-10T07:07:07.794Z,2
2017-10-10T07:09:05.765Z,2.1
2017-10-10T07:10:05.620Z,2.1
2017-10-10T07:11:04.328Z,2
2017-10-10T07:13:03.060Z,2.1
2017-10-10T07:14:01.902Z,2.1
2017-10-10T07:15:01.392Z,2.1
2017-10-10T07:16:00.363Z,2.1
2017-10-10T07:16:30.525Z,2.1
2017-10-10T07:18:57.957Z,2.1
2017-10-10T07:21:55.311Z,2.1
2017-10-10T07:22:54.919Z,2.1
2017-10-10T07:24:52.644Z,2.2
2017-10-10T07:26:51.378Z,2.2
2017-10-10T07:27:21.796Z,2.2
2017-10-10T07:27:51.827Z,2.2
2017-10-10T07:28:22.653Z,2.2
2017-10-10T07:29:48.677Z,2.2
2017-10-10T07:30:47.523Z,2.2
2017-10-10T07:31:47.009Z,2.2
2017-10-10T07:32:45.861Z,2.2
2017-10-10T07:34:44.597Z,2.2
2017-10-10T07:35:43.719Z,2.2
2017-10-10T07:36:42.940Z,2.2
2017-10-10T07:39:40.060Z,2.2
2017-10-10T07:40:39.408Z,2.2
2017-10-10T07:41:38.620Z,2.2
2017-10-10T07:43:36.721Z,2.3
2017-10-10T07:44:36.075Z,2.3
2017-10-10T07:45:35.290Z,2.3
2017-10-10T07:46:34.499Z,2.4
2017-10-10T07:47:33.706Z,2.4
2017-10-10T07:49:32.076Z,2.5
2017-10-10T07:50:31.074Z,2.5
2017-10-10T07:51:30.159Z,2.5
2017-10-10T07:53:28.395Z,2.5
2017-10-10T07:54:27.873Z,2.6
2017-10-10T07:55:26.967Z,2.6
2017-10-10T07:56:25.815Z,2.6
2017-10-10T07:57:25.030Z,2.6
2017-10-10T07:58:24.120Z,2.6
2017-10-10T07:58:54.526Z,2.6
2017-10-10T07:59:25.049Z,2.6
2017-10-10T07:59:55.577Z,2.6
2017-10-10T08:01:21.853Z,2.6
2017-10-10T08:02:21.074Z,2.6
2017-10-10T08:03:20.435Z,2.6
2017-10-10T08:04:19.146Z,2.6
2017-10-10T08:05:18.230Z,2.6
2017-10-10T08:06:17.585Z,2.6
2017-10-10T08:07:17.085Z,2.6
2017-10-10T08:08:15.933Z,2.7
2017-10-10T08:09:15.162Z,2.7
2017-10-10T08:09:46.095Z,2.7
2017-10-10T08:10:16.380Z,2.7
2017-10-10T08:10:46.904Z,2.7
2017-10-10T08:11:17.565Z,2.7
2017-10-10T08:12:12.751Z,2.7
2017-10-10T08:13:12.370Z,2.7
2017-10-10T08:14:11.343Z,2.7
2017-10-10T08:15:10.186Z,2.8
2017-10-10T08:16:09.537Z,2.8
2017-10-10T08:17:08.641Z,2.8
2017-10-10T08:18:07.998Z,2.8
2017-10-10T08:19:06.984Z,2.8
2017-10-10T08:20:06.336Z,2.8
2017-10-10T08:21:05.312Z,2.8
2017-10-10T08:22:04.530Z,2.8
2017-10-10T08:23:04.277Z,2.8
2017-10-10T08:25:02.478Z,2.8
2017-10-10T08:26:01.584Z,2.8
2017-10-10T08:27:59.172Z,2.8
2017-10-10T08:28:58.894Z,2.8
2017-10-10T08:29:57.600Z,2.9
2017-10-10T08:30:56.945Z,2.8
2017-10-10T08:31:56.017Z,2.9
2017-10-10T08:32:55.498Z,2.8
2017-10-10T08:33:55.119Z,2.8
2017-10-10T08:34:53.966Z,2.8
2017-10-10T08:35:52.941Z,2.8
2017-10-10T08:36:52.420Z,2.8
2017-10-10T08:37:51.139Z,2.8
2017-10-10T08:38:50.621Z,2.8
2017-10-10T08:39:49.962Z,2.8
2017-10-10T08:41:47.926Z,2.9
2017-10-10T08:42:47.405Z,2.9
2017-10-10T08:43:46.379Z,2.9
2017-10-10T08:44:45.600Z,2.9
2017-10-10T08:45:44.956Z,2.9
2017-10-10T08:46:43.803Z,2.9
2017-10-10T08:49:41.716Z,2.9
2017-10-10T08:50:40.792Z,2.9
2017-10-10T08:51:40.270Z,2.9
2017-10-10T08:52:39.123Z,2.9
2017-10-10T08:53:37.963Z,3
2017-10-10T08:54:37.039Z,3
2017-10-10T08:55:36.759Z,3
2017-10-10T08:56:35.474Z,3
2017-10-10T08:57:34.833Z,3
2017-10-10T08:58:34.315Z,3
2017-10-10T09:00:32.409Z,3
2017-10-10T09:01:31.760Z,3
2017-10-10T09:02:30.610Z,3
2017-10-10T09:03:29.558Z,3
2017-10-10T09:04:29.284Z,3.1
2017-10-10T09:05:28.498Z,3.1
2017-10-10T09:06:27.842Z,3.1
2017-10-10T09:07:26.815Z,3.1
2017-10-10T09:08:25.530Z,3.1
2017-10-10T09:09:25.247Z,3.2
2017-10-10T09:11:23.214Z,3.2
2017-10-10T09:12:22.697Z,3.2
2017-10-10T09:13:22.195Z,3.2
2017-10-10T09:14:21.170Z,3.2
2017-10-10T09:15:20.452Z,3.3
2017-10-10T09:16:19.040Z,3.3
2017-10-10T09:17:18.624Z,3.3
2017-10-10T09:18:17.974Z,3.3
2017-10-10T09:19:16.556Z,3.3
2017-10-10T09:20:15.782Z,3.4
2017-10-10T09:21:14.997Z,3.4
2017-10-10T09:22:14.751Z,3.4
2017-10-10T09:23:13.596Z,3.4
2017-10-10T09:24:12.682Z,3.4
2017-10-10T09:25:11.908Z,3.4
2017-10-10T09:26:11.532Z,3.4
2017-10-10T09:27:10.640Z,3.4
2017-10-10T09:28:09.492Z,3.4
2017-10-10T09:29:09.096Z,3.4
2017-10-10T09:30:07.816Z,3.4
2017-10-10T09:31:07.299Z,3.4
2017-10-10T09:32:06.136Z,3.4
2017-10-10T09:33:05.350Z,3.4
2017-10-10T09:34:04.599Z,3.4
2017-10-10T09:35:03.955Z,3.4
2017-10-10T09:36:03.446Z,3.4
2017-10-10T09:36:33.846Z,3.4
2017-10-10T09:37:04.506Z,3.4
2017-10-10T09:38:01.613Z,3.4
2017-10-10T09:39:00.591Z,3.4
2017-10-10T09:39:59.813Z,3.5
2017-10-10T09:40:59.170Z,3.5
2017-10-10T09:41:58.161Z,3.5
2017-10-10T09:42:57.385Z,3.5
2017-10-10T09:44:55.493Z,3.6
2017-10-10T09:45:55.615Z,3.6
2017-10-10T09:46:25.645Z,3.6
2017-10-10T09:46:56.182Z,3.6
2017-10-10T09:47:27.242Z,3.6
2017-10-10T09:49:51.901Z,3.7
2017-10-10T09:50:21.794Z,3.7
2017-10-10T09:50:52.591Z,3.7
2017-10-10T09:51:50.066Z,3.7
2017-10-10T09:52:49.434Z,3.8
2017-10-10T09:54:47.263Z,3.8
2017-10-10T09:55:46.984Z,3.9
2017-10-10T09:56:46.603Z,3.9
2017-10-10T09:57:45.467Z,3.9
2017-10-10T09:58:44.550Z,3.9
2017-10-10T09:59:44.040Z,3.9
2017-10-10T10:00:43.017Z,4
2017-10-10T10:01:41.877Z,4
2017-10-10T10:02:41.224Z,4.1
2017-10-10T10:03:40.988Z,4.1
2017-10-10T10:04:39.965Z,4.1
2017-10-10T10:05:38.676Z,4.1
2017-10-10T10:06:37.761Z,4.2
2017-10-10T10:07:37.521Z,4.2
2017-10-10T10:08:36.236Z,4.2
2017-10-10T10:09:35.316Z,4.2
2017-10-10T10:10:34.774Z,4.2
2017-10-10T10:11:34.121Z,4.2
2017-10-10T10:12:33.476Z,4.2
2017-10-10T10:13:32.467Z,4.3
2017-10-10T10:14:31.811Z,4.3
2017-10-10T10:15:31.023Z,4.3
2017-10-10T10:16:30.013Z,4.3
2017-10-10T10:17:29.490Z,4.3
2017-10-10T10:17:59.918Z,4.3
2017-10-10T10:18:29.689Z,4.4
2017-10-10T10:19:27.548Z,4.4
2017-10-10T10:20:26.897Z,4.4
2017-10-10T10:21:26.375Z,4.4
2017-10-10T10:22:25.084Z,4.5
2017-10-10T10:23:24.574Z,4.5
2017-10-10T10:24:23.546Z,4.5
2017-10-10T10:26:22.562Z,4.6
2017-10-10T10:27:21.276Z,4.6
2017-10-10T10:28:20.884Z,4.7
2017-10-10T10:28:51.320Z,4.7
2017-10-10T10:29:21.352Z,4.7
2017-10-10T10:29:52.146Z,4.7
2017-10-10T10:30:22.326Z,4.7
2017-10-10T10:30:52.853Z,4.7
2017-10-10T10:32:17.112Z,4.8
2017-10-10T10:33:16.323Z,4.8
2017-10-10T10:34:15.411Z,4.9
2017-10-10T10:35:14.632Z,4.9
2017-10-10T10:36:14.242Z,4.9
2017-10-10T10:37:13.463Z,4.9
2017-10-10T10:38:12.818Z,4.9
2017-10-10T10:39:11.655Z,5
2017-10-10T10:39:42.314Z,5
2017-10-10T10:40:12.616Z,5
2017-10-10T10:40:43.179Z,5
2017-10-10T10:41:13.339Z,5
2017-10-10T10:41:43.739Z,5
2017-10-10T10:43:08.481Z,5
2017-10-10T10:44:07.563Z,5
2017-10-10T10:45:07.206Z,5
2017-10-10T10:46:06.284Z,5
2017-10-10T10:47:05.770Z,5
2017-10-10T10:48:04.756Z,5.1
2017-10-10T10:49:04.128Z,5
2017-10-10T10:50:03.120Z,5
2017-10-10T10:51:02.507Z,5
2017-10-10T10:52:01.219Z,5
2017-10-10T10:53:00.848Z,5
2017-10-10T10:53:59.922Z,5
2017-10-10T10:54:59.399Z,4.9
2017-10-10T10:56:57.771Z,5
2017-10-10T10:57:56.750Z,4.9
2017-10-10T10:58:55.986Z,4.9
2017-10-10T10:59:55.332Z,4.9
2017-10-10T11:00:54.819Z,4.9
2017-10-10T11:02:53.054Z,5
2017-10-10T11:04:51.422Z,5
2017-10-10T11:05:50.771Z,5
2017-10-10T11:06:49.988Z,5
2017-10-10T11:08:48.227Z,5
2017-10-10T11:09:47.444Z,5
2017-10-10T11:11:45.921Z,5
2017-10-10T11:12:45.547Z,5
2017-10-10T11:13:44.262Z,5
2017-10-10T11:15:42.366Z,4.9
2017-10-10T11:16:41.952Z,4.9
2017-10-10T11:17:41.698Z,4.9
2017-10-10T11:18:40.551Z,4.9
2017-10-10T11:19:39.399Z,4.9
2017-10-10T11:20:39.010Z,5
2017-10-10T11:21:37.719Z,5
2017-10-10T11:22:37.069Z,5
2017-10-10T11:23:36.553Z,5
2017-10-10T11:24:35.906Z,4.9
2017-10-10T11:25:34.750Z,4.9
2017-10-10T11:26:34.095Z,4.9
2017-10-10T11:28:32.061Z,4.9
2017-10-10T11:29:31.931Z,5
2017-10-10T11:30:31.134Z,5
2017-10-10T11:31:30.664Z,5
2017-10-10T11:32:29.642Z,5.1
2017-10-10T11:33:28.224Z,5.1
2017-10-10T11:35:27.096Z,5.1
2017-10-10T11:36:26.707Z,5.1
2017-10-10T11:37:25.688Z,5.1
2017-10-10T11:38:24.789Z,5.1
2017-10-10T11:39:24.016Z,5.1
2017-10-10T11:41:22.623Z,5.1
2017-10-10T11:42:21.838Z,5.1
2017-10-10T11:43:20.819Z,5.1
2017-10-10T11:44:20.032Z,5.1
2017-10-10T11:45:19.642Z,5.1
2017-10-10T11:46:18.500Z,5.1
2017-10-10T11:47:17.715Z,5.1
2017-10-10T11:48:16.958Z,5.1
2017-10-10T11:49:16.431Z,5.1
2017-10-10T11:50:15.147Z,5.1
2017-10-10T11:52:13.883Z,5
2017-10-10T11:53:13.105Z,5
2017-10-10T11:54:12.321Z,5
2017-10-10T11:55:11.551Z,4.9
2017-10-10T11:56:10.778Z,4.9
2017-10-10T11:57:10.253Z,4.9
2017-10-10T11:58:09.248Z,4.9
2017-10-10T11:59:08.753Z,4.9
2017-10-10T12:00:07.732Z,4.9
2017-10-10T12:02:06.397Z,5
2017-10-10T12:03:05.174Z,5
2017-10-10T12:04:04.660Z,5
2017-10-10T12:06:03.045Z,5
2017-10-10T12:06:33.582Z,5
2017-10-10T12:07:04.248Z,5.1
2017-10-10T12:07:35.183Z,5.1
2017-10-10T12:09:00.707Z,5.1
2017-10-10T12:09:59.922Z,5.1
2017-10-10T12:10:59.402Z,5.1
2017-10-10T12:11:58.127Z,5
2017-10-10T12:12:57.482Z,5
2017-10-10T12:13:56.822Z,5
2017-10-10T12:14:56.305Z,5
2017-10-10T12:15:55.021Z,5
2017-10-10T12:16:54.235Z,5
2017-10-10T12:17:24.769Z,5
2017-10-10T12:17:55.293Z,4.9
2017-10-10T12:18:25.832Z,4.9
2017-10-10T12:19:52.360Z,4.9
2017-10-10T12:20:51.201Z,4.9
2017-10-10T12:21:50.547Z,4.9
2017-10-10T12:22:49.889Z,4.9
2017-10-10T12:23:49.531Z,4.8
2017-10-10T12:24:48.376Z,4.8
2017-10-10T12:25:47.718Z,4.8
2017-10-10T12:26:46.293Z,4.8
2017-10-10T12:27:46.011Z,4.8
2017-10-10T12:28:45.349Z,4.8
2017-10-10T12:29:44.188Z,4.8
2017-10-10T12:30:43.537Z,4.7
2017-10-10T12:31:42.891Z,4.7
2017-10-10T12:32:42.251Z,4.7
2017-10-10T12:33:40.829Z,4.7
2017-10-10T12:34:40.530Z,4.6
2017-10-10T12:35:39.649Z,4.7
2017-10-10T12:37:37.738Z,4.6
2017-10-10T12:38:37.329Z,4.6
2017-10-10T12:39:36.684Z,4.6
2017-10-10T12:40:35.932Z,4.6
2017-10-10T12:41:35.417Z,4.5
2017-10-10T12:42:34.396Z,4.5
2017-10-10T12:43:33.264Z,4.5
2017-10-10T12:44:32.611Z,4.4
2017-10-10T12:45:32.135Z,4.4
2017-10-10T12:46:30.977Z,4.4
2017-10-10T12:47:30.450Z,4.4
2017-10-10T12:48:29.573Z,4.4
2017-10-10T12:49:28.658Z,4.4
2017-10-10T12:50:27.881Z,4.3
2017-10-10T12:50:58.677Z,4.3
2017-10-10T12:52:26.848Z,4.3
2017-10-10T12:53:25.424Z,4.3
2017-10-10T12:54:24.775Z,4.3
2017-10-10T12:55:24.400Z,4.2
2017-10-10T12:56:22.971Z,4.2
2017-10-10T12:57:22.824Z,4.2
2017-10-10T12:58:21.414Z,4.2
2017-10-10T12:59:20.770Z,4.2
2017-10-10T13:00:19.994Z,4.2
2017-10-10T13:01:19.207Z,4.1
2017-10-10T13:01:49.882Z,4.1
2017-10-10T13:02:20.543Z,4.1
2017-10-10T13:03:18.010Z,4.1
2017-10-10T13:04:17.256Z,4.1
2017-10-10T13:05:16.511Z,4.1
2017-10-10T13:06:15.361Z,4.1
2017-10-10T13:07:14.590Z,4.1
2017-10-10T13:08:13.657Z,4
2017-10-10T13:09:13.008Z,4
2017-10-10T13:10:12.501Z,4
2017-10-10T13:11:11.212Z,4
2017-10-10T13:12:10.830Z,4
2017-10-10T13:14:08.935Z,4
2017-10-10T13:15:08.415Z,4
2017-10-10T13:18:06.038Z,4
2017-10-10T13:19:05.661Z,4
2017-10-10T13:20:04.367Z,4
2017-10-10T13:21:03.729Z,4
2017-10-10T13:22:02.808Z,4
2017-10-10T13:23:02.288Z,4
2017-10-10T13:24:01.408Z,3.9
2017-10-10T13:25:00.629Z,3.9
2017-10-10T13:26:00.120Z,3.9
2017-10-10T13:26:58.966Z,3.9
2017-10-10T13:27:57.552Z,4
2017-10-10T13:28:57.437Z,4
2017-10-10T13:29:56.823Z,4
2017-10-10T13:30:55.548Z,4
2017-10-10T13:31:54.790Z,4
2017-10-10T13:32:54.161Z,4
2017-10-10T13:33:53.380Z,4
2017-10-10T13:34:52.600Z,4
2017-10-10T13:35:51.951Z,4
2017-10-10T13:36:50.670Z,4
2017-10-10T13:37:50.812Z,4
2017-10-10T13:38:49.429Z,4
2017-10-10T13:39:48.803Z,4
2017-10-10T13:40:47.880Z,4
2017-10-10T13:42:46.130Z,4
2017-10-10T13:43:45.622Z,4.1
2017-10-10T13:44:44.971Z,4.1
2017-10-10T13:45:43.839Z,4.1
2017-10-10T13:46:43.461Z,4.1
2017-10-10T13:47:42.447Z,4.1
2017-10-10T13:48:41.926Z,4.1
2017-10-10T13:49:40.775Z,4.1
2017-10-10T13:50:39.990Z,4.2
2017-10-10T13:51:39.207Z,4.2
2017-10-10T13:52:38.426Z,4.2
2017-10-10T13:53:37.406Z,4.2
2017-10-10T13:54:36.743Z,4.3
2017-10-10T13:55:35.960Z,4.3
2017-10-10T13:56:35.448Z,4.3
2017-10-10T13:57:34.165Z,4.3
2017-10-10T13:58:33.529Z,4.3
2017-10-10T13:59:32.874Z,4.3
2017-10-10T14:00:03.268Z,4.3
2017-10-10T14:00:33.804Z,4.3
2017-10-10T14:01:04.474Z,4.3
2017-10-10T14:01:34.363Z,4.3
2017-10-10T14:02:30.556Z,4.3
2017-10-10T14:04:28.931Z,4.3
2017-10-10T14:05:27.792Z,4.3
2017-10-10T14:06:27.152Z,4.3
2017-10-10T14:07:26.500Z,4.3
2017-10-10T14:08:26.105Z,4.3
2017-10-10T14:09:24.821Z,4.3
2017-10-10T14:11:23.324Z,4.4
2017-10-10T14:12:22.541Z,4.4
2017-10-10T14:13:22.036Z,4.4
2017-10-10T14:14:20.761Z,4.4
2017-10-10T14:15:20.124Z,4.4
2017-10-10T14:16:19.344Z,4.4
2017-10-10T14:17:18.827Z,4.4
2017-10-10T14:18:17.821Z,4.4
2017-10-10T14:19:16.912Z,4.4
2017-10-10T14:20:16.402Z,4.4
2017-10-10T14:21:15.264Z,4.4
2017-10-10T14:22:14.477Z,4.4
2017-10-10T14:23:13.956Z,4.4
2017-10-10T14:24:13.309Z,4.4
2017-10-10T14:25:12.022Z,4.4
2017-10-10T14:26:11.104Z,4.4
2017-10-10T14:27:10.962Z,4.4
2017-10-10T14:28:09.808Z,4.4
2017-10-10T14:29:09.175Z,4.4
2017-10-10T14:30:08.671Z,4.4
2017-10-10T14:31:07.382Z,4.4
2017-10-10T14:32:06.743Z,4.4
2017-10-10T14:33:05.962Z,4.4
2017-10-10T14:34:05.582Z,4.4
2017-10-10T14:35:04.433Z,4.5
2017-10-10T14:36:03.910Z,4.5
2017-10-10T14:37:02.508Z,4.5
2017-10-10T14:38:02.120Z,4.6
2017-10-10T14:39:01.232Z,4.6
2017-10-10T14:40:59.722Z,4.5
2017-10-10T14:46:54.998Z,4.5
2017-10-10T14:47:54.123Z,4.5
2017-10-10T14:49:52.508Z,4.6
2017-10-10T14:50:52.011Z,4.6
2017-10-10T14:51:50.854Z,4.6
2017-10-10T14:52:50.199Z,4.6
2017-10-10T14:56:47.068Z,4.7
2017-10-10T14:57:46.428Z,4.7
2017-10-10T14:58:45.647Z,4.8
2017-10-10T15:01:43.394Z,4.9
2017-10-10T15:02:42.391Z,4.9
2017-10-10T15:03:41.610Z,4.9
2017-10-10T15:04:40.736Z,4.9
2017-10-10T15:05:40.216Z,4.9
2017-10-10T15:06:38.800Z,4.9
2017-10-10T15:07:38.407Z,4.9
2017-10-10T15:09:36.376Z,4.9
2017-10-10T15:21:27.464Z,4.8
2017-10-10T15:23:25.434Z,4.8
2017-10-10T15:24:24.656Z,4.8
2017-10-10T15:25:24.272Z,4.8
2017-10-10T15:26:23.227Z,4.8
2017-10-10T15:27:22.315Z,4.8
2017-10-10T15:28:21.679Z,4.8
2017-10-10T15:29:20.901Z,4.8
2017-10-10T15:30:20.244Z,4.8
2017-10-10T15:31:19.460Z,4.8
2017-10-10T15:32:18.810Z,4.7
2017-10-10T15:33:18.300Z,4.7
2017-10-10T15:34:16.878Z,4.7
2017-10-10T15:35:16.336Z,4.7
2017-10-10T15:36:15.817Z,4.7
2017-10-10T15:37:14.909Z,4.7
2017-10-10T15:38:14.311Z,4.7
2017-10-10T15:39:13.609Z,4.7
2017-10-10T15:41:12.108Z,4.7
2017-10-10T15:42:10.692Z,4.7
2017-10-10T15:43:10.172Z,4.7
2017-10-10T15:45:08.797Z,4.6
2017-10-10T15:46:08.834Z,4.6
2017-10-10T15:47:07.092Z,4.6
2017-10-10T15:48:06.070Z,4.5
2017-10-10T15:49:05.164Z,4.5
2017-10-10T15:50:04.797Z,4.5
2017-10-10T15:51:03.510Z,4.5
2017-10-10T15:52:02.869Z,4.5
2017-10-10T15:53:02.363Z,4.4
2017-10-10T15:54:01.587Z,4.4
2017-10-10T15:55:00.439Z,4.4
2017-10-10T15:55:59.666Z,4.4
2017-10-10T15:56:59.024Z,4.4
2017-10-10T15:57:58.238Z,4.4
2017-10-10T15:58:57.450Z,4.4
2017-10-10T15:59:57.060Z,4.4
2017-10-10T16:00:55.909Z,4.4
2017-10-10T16:01:55.261Z,4.4
2017-10-10T16:02:54.738Z,4.4
2017-10-10T16:03:53.587Z,4.3
2017-10-10T16:04:53.080Z,4.3
2017-10-10T16:05:52.425Z,4.3
2017-10-10T16:06:51.152Z,4.3
2017-10-10T16:07:50.257Z,4.3
2017-10-10T16:08:49.479Z,4.3
2017-10-10T16:09:48.701Z,4.3
2017-10-10T16:10:47.783Z,4.3
2017-10-10T16:11:18.448Z,4.3
2017-10-10T16:13:45.876Z,4.2
2017-10-10T16:14:45.368Z,4.2
2017-10-10T16:15:44.082Z,4.3
2017-10-10T16:16:43.569Z,4.3
2017-10-10T16:17:42.772Z,4.2
2017-10-10T16:18:42.709Z,4.3
2017-10-10T16:19:41.314Z,4.3
2017-10-10T16:20:40.161Z,4.2
2017-10-10T16:21:39.641Z,4.2
2017-10-10T16:23:38.133Z,4.3
2017-10-10T16:24:36.719Z,4.3
2017-10-10T16:25:36.194Z,4.3
2017-10-10T16:26:35.441Z,4.3
2017-10-10T16:28:34.046Z,4.3
2017-10-10T16:29:04.577Z,4.3
2017-10-10T16:29:35.245Z,4.3
2017-10-10T16:30:05.403Z,4.3
2017-10-10T16:30:36.203Z,4.2
2017-10-10T16:31:06.507Z,4.2
2017-10-10T16:32:31.023Z,4.3
2017-10-10T16:33:29.601Z,4.3
2017-10-10T16:34:28.962Z,4.3
2017-10-10T16:35:28.178Z,4.3
2017-10-10T16:36:27.400Z,4.3
2017-10-10T16:37:26.750Z,4.3
2017-10-10T16:38:25.839Z,4.2
2017-10-10T16:39:25.185Z,4.3
2017-10-10T16:40:24.272Z,4.3
2017-10-10T16:41:23.637Z,4.2
2017-10-10T16:42:22.849Z,4.3
2017-10-10T16:43:22.095Z,4.2
2017-10-10T16:44:21.452Z,4.2
2017-10-10T16:45:20.300Z,4.3
2017-10-10T16:46:19.646Z,4.3
2017-10-10T16:47:19.137Z,4.3
2017-10-10T16:48:17.852Z,4.3
2017-10-10T16:49:17.338Z,4.3
2017-10-10T16:50:16.424Z,4.3
2017-10-10T16:51:15.906Z,4.2
2017-10-10T16:52:14.751Z,4.2
2017-10-10T16:53:13.966Z,4.2
2017-10-10T16:54:13.314Z,4.2
2017-10-10T16:55:12.533Z,4.2
2017-10-10T16:56:11.892Z,4.2
2017-10-10T16:57:10.476Z,4.2
2017-10-10T16:58:10.197Z,4.2
2017-10-10T16:59:09.414Z,4.2
2017-10-10T17:00:09.039Z,4.2
2017-10-10T17:01:07.763Z,4.2
2017-10-10T17:02:07.122Z,4.2
2017-10-10T17:03:06.231Z,4.2
2017-10-10T17:04:05.443Z,4.1
2017-10-10T17:05:04.800Z,4.1
2017-10-10T17:06:03.897Z,4.1
2017-10-10T17:07:02.980Z,4.1
2017-10-10T17:08:02.335Z,4.1
2017-10-10T17:09:01.561Z,4.1
2017-10-10T17:10:01.038Z,4.1
2017-10-10T17:10:59.758Z,4.1
2017-10-10T17:11:30.025Z,4.1
2017-10-10T17:12:57.790Z,4.1
2017-10-10T17:13:57.511Z,4.1
2017-10-10T17:14:56.729Z,4.1
2017-10-10T17:15:56.082Z,4.1
2017-10-10T17:16:55.431Z,4.1
2017-10-10T17:17:54.141Z,4.1
2017-10-10T17:18:53.489Z,4.1
2017-10-10T17:19:52.710Z,4.1
2017-10-10T17:20:52.185Z,4.1
2017-10-10T17:21:51.030Z,4.1
2017-10-10T17:22:21.427Z,4.1
2017-10-10T17:22:52.232Z,4.1
2017-10-10T17:23:22.352Z,4.1
2017-10-10T17:23:53.022Z,4.1
2017-10-10T17:24:48.984Z,4.1
2017-10-10T17:25:48.067Z,4.1
2017-10-10T17:26:47.296Z,4.1
2017-10-10T17:27:46.375Z,4.1
2017-10-10T17:28:45.989Z,4.1
2017-10-10T17:29:44.839Z,4.1
2017-10-10T17:30:44.053Z,4.1
2017-10-10T17:31:43.268Z,4.2
2017-10-10T17:32:42.490Z,4.1
2017-10-10T17:33:41.706Z,4.1
2017-10-10T17:34:41.058Z,4.2
2017-10-10T17:35:40.010Z,4.2
2017-10-10T17:36:39.103Z,4.2
2017-10-10T17:37:38.450Z,4.2
2017-10-10T17:38:37.651Z,4.2
2017-10-10T17:39:37.130Z,4.2
2017-10-10T17:40:35.840Z,4.2
2017-10-10T17:41:35.059Z,4.2
2017-10-10T17:42:34.278Z,4.2
2017-10-10T17:43:33.631Z,4.2
2017-10-10T17:44:32.984Z,4.2
2017-10-10T17:45:32.335Z,4.2
2017-10-10T17:46:31.205Z,4.2
2017-10-10T17:47:30.557Z,4.2
2017-10-10T17:48:30.030Z,4.2
2017-10-10T17:49:29.019Z,4.2
2017-10-10T17:51:27.122Z,4.2
2017-10-10T17:52:26.200Z,4.2
2017-10-10T17:53:25.564Z,4.2
2017-10-10T17:54:24.785Z,4.2
2017-10-10T17:55:23.866Z,4.2
2017-10-10T17:56:23.727Z,4.3
2017-10-10T17:57:22.446Z,4.3
2017-10-10T17:58:21.785Z,4.3
2017-10-10T17:59:21.399Z,4.3
2017-10-10T18:00:19.985Z,4.3
2017-10-10T18:01:19.472Z,4.3